Time;durP1;ratioP1;P1;durP2;ratioP2;P2;SDS_P1;SDS_P2;PMS_P1;PMS_P2;Temp;Humidity;BMP_temperature;BMP_pressure;BME280_temperature;BME280_humidity;BME280_pressure;Samples;Min_cycle;Max_cycle;Signal;HPM_P1;HPM_P2
2022/03/18 00:00:59;;;;;;;14.10;8.02;;;1.90;99.90;;;;;;7291925;32;20229;-60
2022/03/18 00:05:00;;;;;;;12.70;7.05;;;1.80;99.90;;;;;;7294063;32;20214;-60
2022/03/18 00:09:02;;;;;;;13.75;8.13;;;1.80;99.90;;;;;;7295205;32;20104;-60
2022/03/18 00:13:04;;;;;;;11.32;8.00;;;1.70;99.90;;;;;;7296422;32;20206;-60
2022/03/18 00:17:07;;;;;;;13.85;7.87;;;1.70;99.90;;;;;;7297110;32;20459;-60
2022/03/18 00:21:08;;;;;;;15.32;8.23;;;1.70;99.90;;;;;;7295037;32;20950;-60
2022/03/18 00:25:12;;;;;;;13.95;8.13;;;1.60;99.90;;;;;;7296777;32;20132;-60
2022/03/18 00:29:14;;;;;;;13.88;7.47;;;1.50;99.90;;;;;;7298453;32;20688;-60
2022/03/18 00:33:15;;;;;;;21.95;8.35;;;1.60;99.90;;;;;;7296110;32;20099;-60
2022/03/18 00:37:17;;;;;;;17.02;8.07;;;1.50;99.90;;;;;;7292138;32;21888;-60
2022/03/18 00:41:19;;;;;;;15.35;8.38;;;1.50;99.90;;;;;;7297182;32;20127;-61
2022/03/18 00:45:21;;;;;;;15.88;8.68;;;1.50;99.90;;;;;;7297503;32;20609;-61
2022/03/18 00:53:43;;;;;;;14.68;8.63;;;1.50;99.90;;;;;;7296558;32;20099;-60
2022/03/18 00:57:45;;;;;;;14.98;8.38;;;1.40;99.90;;;;;;7297335;32;20130;-61
2022/03/18 01:01:46;;;;;;;14.00;8.43;;;1.40;99.90;;;;;;7295589;32;20116;-60
2022/03/18 01:05:48;;;;;;;16.45;9.25;;;1.30;99.90;;;;;;7290320;32;20205;-60
2022/03/18 01:09:50;;;;;;;15.20;8.82;;;1.30;99.90;;;;;;7296926;32;20674;-60
2022/03/18 01:13:51;;;;;;;14.60;8.73;;;1.30;99.90;;;;;;7296021;32;20127;-60
2022/03/18 01:17:53;;;;;;;15.75;8.13;;;1.30;99.90;;;;;;7293277;32;20155;-60
2022/03/18 01:21:55;;;;;;;13.05;9.30;;;1.20;99.90;;;;;;7289763;32;20246;-60
2022/03/18 01:25:56;;;;;;;15.20;7.85;;;1.20;99.90;;;;;;7295564;32;20231;-60
2022/03/18 01:29:58;;;;;;;14.60;8.65;;;1.10;99.90;;;;;;7295594;32;20139;-60
2022/03/18 01:34:00;;;;;;;12.57;8.07;;;1.20;99.90;;;;;;7294522;32;20159;-60
2022/03/18 01:38:01;;;;;;;13.30;8.40;;;1.10;99.90;;;;;;7291769;32;20119;-60
2022/03/18 01:42:04;;;;;;;16.42;8.18;;;1.10;99.90;;;;;;7281271;32;20130;-61
2022/03/18 01:46:05;;;;;;;13.43;8.90;;;1.00;99.90;;;;;;7294790;32;20143;-60
2022/03/18 01:50:07;;;;;;;11.25;7.45;;;1.00;99.90;;;;;;7293349;32;20140;-60
2022/03/18 01:58:30;;;;;;;13.90;8.27;;;1.00;99.90;;;;;;7293070;32;20111;-59
2022/03/18 02:02:32;;;;;;;14.32;8.82;;;0.90;99.90;;;;;;7292319;32;20112;-59
2022/03/18 02:06:35;;;;;;;15.95;8.73;;;0.90;99.90;;;;;;7292077;32;20216;-58
2022/03/18 02:10:37;;;;;;;15.80;7.90;;;0.80;99.90;;;;;;7292054;32;20298;-59
2022/03/18 02:14:40;;;;;;;14.77;8.73;;;0.80;99.90;;;;;;7293252;32;20131;-59
2022/03/18 02:18:42;;;;;;;15.93;8.32;;;0.80;99.90;;;;;;7292983;32;20130;-59
2022/03/18 02:22:44;;;;;;;13.75;8.32;;;0.70;99.90;;;;;;7292030;32;20661;-58
2022/03/18 02:26:50;;;;;;;14.50;7.60;;;0.70;99.90;;;;;;7295340;32;20737;-60
2022/03/18 02:30:52;;;;;;;15.50;8.40;;;0.70;99.90;;;;;;7289762;32;20141;-59
2022/03/18 02:34:53;;;;;;;17.05;8.23;;;0.60;99.90;;;;;;7293953;32;20185;-59
2022/03/18 02:38:55;;;;;;;12.75;8.18;;;0.60;99.90;;;;;;7292134;32;20207;-58
2022/03/18 02:42:58;;;;;;;12.77;7.80;;;0.60;99.90;;;;;;7290604;32;20801;-59
2022/03/18 02:47:00;;;;;;;17.30;8.55;;;0.60;99.90;;;;;;7292912;32;20204;-59
2022/03/18 02:51:02;;;;;;;11.52;7.40;;;0.60;99.90;;;;;;7290788;32;20154;-60
2022/03/18 02:55:04;;;;;;;14.00;7.97;;;0.70;99.90;;;;;;7291306;32;20449;-59
2022/03/18 02:59:05;;;;;;;12.45;8.15;;;0.60;99.90;;;;;;7291839;32;20138;-59
2022/03/18 03:03:07;;;;;;;11.63;7.18;;;0.60;99.90;;;;;;7285942;32;20199;-60
2022/03/18 03:11:29;;;;;;;15.02;7.57;;;0.60;99.90;;;;;;7288961;32;20112;-59
2022/03/18 03:15:32;;;;;;;14.52;7.68;;;0.60;99.90;;;;;;7293003;32;20467;-60
2022/03/18 03:19:33;;;;;;;12.37;6.78;;;0.60;99.90;;;;;;7288727;32;20210;-59
2022/03/18 03:23:36;;;;;;;12.95;7.25;;;0.50;99.90;;;;;;7292150;32;20534;-60
2022/03/18 03:27:38;;;;;;;17.17;7.03;;;0.50;99.90;;;;;;7278865;32;20747;-59
2022/03/18 03:31:40;;;;;;;10.75;6.45;;;0.50;99.90;;;;;;7290718;32;20233;-60
2022/03/18 03:35:42;;;;;;;12.30;7.43;;;0.50;99.90;;;;;;7292791;32;20107;-59
2022/03/18 03:39:44;;;;;;;19.08;7.18;;;0.40;99.90;;;;;;7284649;32;20202;-59
2022/03/18 03:43:46;;;;;;;13.75;6.90;;;0.40;99.90;;;;;;7285652;32;20126;-60
2022/03/18 03:47:48;;;;;;;11.38;6.80;;;0.30;99.90;;;;;;7292894;32;20700;-59
2022/03/18 03:51:49;;;;;;;14.23;6.80;;;0.30;99.90;;;;;;7293862;32;20143;-60
2022/03/18 03:55:51;;;;;;;13.77;6.53;;;0.30;99.90;;;;;;7295656;32;20140;-60
2022/03/18 03:59:53;;;;;;;9.13;6.15;;;0.30;99.90;;;;;;7279552;32;20677;-60
2022/03/18 04:03:54;;;;;;;12.60;6.55;;;0.30;99.90;;;;;;7286635;32;20221;-59
2022/03/18 04:07:56;;;;;;;12.50;6.40;;;0.20;99.90;;;;;;7292799;32;20828;-60
2022/03/18 04:11:58;;;;;;;13.13;5.55;;;0.20;99.90;;;;;;7296129;32;20208;-60
2022/03/18 04:16:00;;;;;;;12.35;6.32;;;0.20;99.90;;;;;;7292887;32;20138;-59
2022/03/18 04:20:02;;;;;;;11.05;6.30;;;0.20;99.90;;;;;;7293685;32;20112;-60
2022/03/18 04:24:03;;;;;;;12.37;6.60;;;0.20;99.90;;;;;;7296683;32;20632;-59
2022/03/18 04:28:05;;;;;;;11.07;6.28;;;0.20;99.90;;;;;;7296973;32;20116;-60
2022/03/18 04:32:09;;;;;;;10.05;6.18;;;0.20;99.90;;;;;;7286206;32;22322;-58
2022/03/18 04:36:11;;;;;;;11.70;6.60;;;0.10;99.90;;;;;;7285667;32;20823;-59
2022/03/18 04:40:13;;;;;;;13.50;6.28;;;0.10;99.90;;;;;;7291290;32;21281;-59
2022/03/18 04:44:15;;;;;;;11.48;6.03;;;0.10;99.90;;;;;;7289030;32;20210;-59
2022/03/18 04:48:17;;;;;;;9.77;6.07;;;0.10;99.90;;;;;;7292735;32;20108;-60
2022/03/18 04:52:18;;;;;;;14.45;6.15;;;0.00;99.90;;;;;;7289716;32;20104;-60
2022/03/18 05:00:41;;;;;;;13.25;5.35;;;0.00;99.90;;;;;;7291617;32;20258;-59
2022/03/18 05:04:44;;;;;;;9.52;5.80;;;0.00;99.90;;;;;;7289003;32;20536;-59
2022/03/18 05:08:45;;;;;;;9.77;5.47;;;-0.10;99.90;;;;;;7295424;32;20130;-58
2022/03/18 05:12:48;;;;;;;11.55;5.57;;;-0.10;99.90;;;;;;7291200;32;20488;-58
2022/03/18 05:16:49;;;;;;;11.88;5.28;;;-0.10;99.90;;;;;;7294204;32;20111;-59
2022/03/18 05:20:51;;;;;;;10.38;5.47;;;-0.20;99.90;;;;;;7293524;32;20112;-59
2022/03/18 05:24:53;;;;;;;13.98;5.35;;;-0.10;99.90;;;;;;7292924;32;20119;-59
2022/03/18 05:28:55;;;;;;;9.23;5.00;;;-0.20;99.90;;;;;;7288597;32;20221;-59
2022/03/18 05:32:57;;;;;;;9.43;5.60;;;-0.30;99.90;;;;;;7287629;32;20280;-60
2022/03/18 05:36:59;;;;;;;10.52;5.28;;;-0.30;99.90;;;;;;7291110;32;20181;-58
2022/03/18 05:41:00;;;;;;;11.15;5.85;;;-0.20;99.90;;;;;;7290909;32;20136;-60
2022/03/18 05:45:02;;;;;;;14.52;5.87;;;-0.20;99.90;;;;;;7277010;32;20223;-61
2022/03/18 05:49:04;;;;;;;10.07;5.72;;;-0.30;99.90;;;;;;7287810;32;20218;-61
2022/03/18 05:53:06;;;;;;;11.80;6.05;;;-0.30;99.90;;;;;;7295903;32;20104;-60
2022/03/18 05:57:07;;;;;;;9.25;5.62;;;-0.30;99.90;;;;;;7289868;32;20134;-60
2022/03/18 06:01:10;;;;;;;8.07;5.10;;;-0.30;99.90;;;;;;7292234;32;20134;-60
2022/03/18 06:05:12;;;;;;;15.43;7.45;;;-0.30;99.90;;;;;;7292378;32;20116;-59
2022/03/18 06:13:36;;;;;;;13.75;5.35;;;-0.20;99.90;;;;;;7293399;32;20677;-59
2022/03/18 06:17:37;;;;;;;9.52;4.93;;;-0.20;99.90;;;;;;7293313;32;20108;-60
2022/03/18 06:21:41;;;;;;;11.25;5.60;;;-0.20;99.90;;;;;;7290806;32;20872;-61
2022/03/18 06:25:43;;;;;;;10.93;5.85;;;-0.20;99.90;;;;;;7287495;32;20103;-59
2022/03/18 06:29:44;;;;;;;13.02;6.05;;;-0.20;99.90;;;;;;7284778;32;20115;-61
2022/03/18 06:33:46;;;;;;;12.00;5.85;;;-0.10;99.90;;;;;;7291702;32;20108;-60
2022/03/18 06:37:48;;;;;;;9.90;5.62;;;-0.10;99.90;;;;;;7296127;32;20526;-59
2022/03/18 06:41:49;;;;;;;11.73;5.37;;;0.00;99.90;;;;;;7291612;32;20134;-61
2022/03/18 06:45:51;;;;;;;12.43;5.65;;;0.10;99.90;;;;;;7287332;32;20127;-60
2022/03/18 06:49:52;;;;;;;13.43;7.35;;;0.30;99.90;;;;;;7273488;32;20142;-60
2022/03/18 06:53:54;;;;;;;12.65;6.62;;;0.20;99.90;;;;;;7285312;32;20195;-60
2022/03/18 06:57:56;;;;;;;11.45;7.12;;;0.40;99.90;;;;;;7291950;32;20832;-61
2022/03/18 07:01:58;;;;;;;11.05;6.53;;;0.40;99.90;;;;;;7283652;32;20591;-60
2022/03/18 07:05:59;;;;;;;15.30;6.78;;;0.50;99.90;;;;;;7290200;32;20120;-60
2022/03/18 07:10:01;;;;;;;15.45;6.80;;;0.60;99.90;;;;;;7288153;32;20512;-59
2022/03/18 07:14:03;;;;;;;17.48;6.55;;;0.70;99.90;;;;;;7290449;32;20139;-61
2022/03/18 07:18:04;;;;;;;11.95;6.30;;;0.80;99.90;;;;;;7288296;32;20186;-59
2022/03/18 07:22:06;;;;;;;14.05;6.00;;;0.90;99.90;;;;;;7285861;32;20115;-60
2022/03/18 07:26:08;;;;;;;10.90;5.55;;;1.00;99.90;;;;;;7286293;32;20150;-60
2022/03/18 07:30:10;;;;;;;12.18;5.70;;;1.20;99.90;;;;;;7291072;32;20637;-60
2022/03/18 07:34:12;;;;;;;13.93;6.53;;;1.30;99.90;;;;;;7288984;32;20157;-61
2022/03/18 07:38:13;;;;;;;11.43;5.95;;;1.50;99.90;;;;;;7282218;32;20123;-61
2022/03/18 07:42:15;;;;;;;16.80;7.07;;;1.90;99.90;;;;;;7281936;32;21063;-61
2022/03/18 07:46:17;;;;;;;15.40;7.00;;;2.20;99.90;;;;;;7284637;32;20108;-61
2022/03/18 07:50:22;;;;;;;14.02;6.03;;;2.60;99.90;;;;;;7288717;32;20112;-61
2022/03/18 07:54:23;;;;;;;16.10;6.07;;;2.80;99.90;;;;;;7278050;32;20134;-61
2022/03/18 07:58:25;;;;;;;11.23;5.65;;;3.00;99.90;;;;;;7281556;32;20274;-61
2022/03/18 08:02:27;;;;;;;14.70;5.80;;;3.20;99.90;;;;;;7272408;32;20270;-60
2022/03/18 08:06:28;;;;;;;14.27;5.28;;;3.40;99.90;;;;;;7275038;32;20194;-61
2022/03/18 08:10:30;;;;;;;16.58;4.57;;;3.80;99.90;;;;;;7276311;32;20643;-60
2022/03/18 08:14:32;;;;;;;14.40;4.80;;;4.20;99.90;;;;;;7278120;32;20196;-61
2022/03/18 08:18:34;;;;;;;11.52;4.15;;;4.50;99.90;;;;;;7283783;32;20246;-61
2022/03/18 08:22:36;;;;;;;5.95;2.35;;;5.00;99.90;;;;;;7269516;32;20202;-60
2022/03/18 08:26:38;;;;;;;9.82;1.90;;;5.80;99.90;;;;;;7288474;32;20245;-59
2022/03/18 08:30:40;;;;;;;11.98;2.08;;;6.20;99.90;;;;;;7281546;32;20333;-62
2022/03/18 08:34:42;;;;;;;9.07;2.33;;;6.80;99.90;;;;;;7289417;32;20108;-60
2022/03/18 08:38:44;;;;;;;7.28;1.98;;;7.80;99.90;;;;;;7293680;32;20344;-61
2022/03/18 08:42:45;;;;;;;6.28;1.52;;;8.70;99.90;;;;;;7288947;32;20206;-62
2022/03/18 08:46:47;;;;;;;5.75;1.87;;;9.00;99.90;;;;;;7288419;32;20131;-59
2022/03/18 08:50:49;;;;;;;11.60;1.60;;;9.20;99.90;;;;;;7292162;32;20175;-60
2022/03/18 08:54:51;;;;;;;9.98;1.42;;;9.60;99.90;;;;;;7285372;32;20153;-61
2022/03/18 08:58:52;;;;;;;5.50;1.73;;;10.00;99.90;;;;;;7289812;32;20504;-61
2022/03/18 09:02:54;;;;;;;6.18;1.52;;;10.10;99.90;;;;;;7283340;32;20237;-61
2022/03/18 09:06:56;;;;;;;6.90;1.83;;;10.60;99.90;;;;;;7287530;32;20308;-61
2022/03/18 09:10:57;;;;;;;6.43;2.08;;;10.50;99.90;;;;;;7289429;32;20221;-60
2022/03/18 09:15:05;;;;;;;4.87;1.65;;;11.30;99.90;;;;;;7288807;32;20576;-61
2022/03/18 09:19:07;;;;;;;5.18;2.15;;;11.40;99.90;;;;;;7292566;32;20138;-61
2022/03/18 09:23:09;;;;;;;4.72;1.60;;;11.20;99.90;;;;;;7289615;32;20564;-60
2022/03/18 09:27:12;;;;;;;5.18;1.42;;;11.90;99.90;;;;;;7285330;32;20230;-61
2022/03/18 09:31:14;;;;;;;6.10;1.40;;;12.10;99.90;;;;;;7286110;32;20300;-62
2022/03/18 09:35:16;;;;;;;8.93;2.22;;;13.10;99.90;;;;;;7291230;32;20198;-62
2022/03/18 09:39:18;;;;;;;6.07;2.00;;;13.50;99.90;;;;;;7289813;32;20247;-61
2022/03/18 09:43:21;;;;;;;6.47;2.25;;;13.50;99.90;;;;;;7289580;32;20190;-59
2022/03/18 09:47:24;;;;;;;7.68;2.22;;;12.90;99.40;;;;;;7287678;32;20142;-62
2022/03/18 09:51:26;;;;;;;7.40;2.15;;;13.70;97.80;;;;;;7290745;32;20226;-61
2022/03/18 09:55:49;;;;;;;5.87;1.90;;;14.00;95.10;;;;;;7284823;32;20308;-61
2022/03/18 09:59:51;;;;;;;8.27;2.03;;;14.60;93.90;;;;;;7287211;32;20134;-61
2022/03/18 10:03:52;;;;;;;6.50;2.35;;;14.70;90.60;;;;;;7291716;32;20138;-61
2022/03/18 10:07:54;;;;;;;5.53;2.05;;;14.60;91.70;;;;;;7285773;32;20238;-60
2022/03/18 10:11:56;;;;;;;8.40;2.20;;;15.40;85.80;;;;;;7290034;32;20256;-63
2022/03/18 10:15:58;;;;;;;6.50;1.73;;;14.80;81.60;;;;;;7288490;32;20165;-61
2022/03/18 10:20:00;;;;;;;10.35;1.92;;;15.30;84.10;;;;;;7288395;32;20111;-60
2022/03/18 10:24:09;;;;;;;4.50;2.10;;;14.20;82.40;;;;;;7284333;32;20207;-62
2022/03/18 10:28:11;;;;;;;7.85;2.22;;;14.90;87.60;;;;;;7284757;32;20261;-60
2022/03/18 10:32:15;;;;;;;6.72;2.03;;;16.10;75.10;;;;;;7279536;32;20198;-61
2022/03/18 10:40:45;;;;;;;5.77;2.43;;;17.10;72.30;;;;;;7288546;32;20565;-61
2022/03/18 10:44:58;;;;;;;4.03;1.90;;;17.80;66.40;;;;;;7286681;32;20198;-63
2022/03/18 10:49:02;;;;;;;4.65;2.10;;;16.90;61.40;;;;;;7285936;32;20198;-62
2022/03/18 10:53:06;;;;;;;4.87;2.50;;;16.30;65.30;;;;;;7285439;32;20191;-61
2022/03/18 10:57:08;;;;;;;5.32;2.00;;;14.80;72.00;;;;;;7274135;32;20134;-62
2022/03/18 11:01:11;;;;;;;4.35;1.75;;;14.60;74.00;;;;;;7286746;32;20130;-64
2022/03/18 11:05:14;;;;;;;3.25;1.23;;;14.60;75.10;;;;;;7289282;32;20116;-61
2022/03/18 11:09:16;;;;;;;3.22;1.35;;;14.60;73.20;;;;;;7280465;32;20201;-62
2022/03/18 11:13:20;;;;;;;4.37;1.60;;;14.90;72.80;;;;;;7292063;32;20111;-61
2022/03/18 11:17:22;;;;;;;6.32;1.40;;;15.40;69.80;;;;;;7291895;32;20541;-61
2022/03/18 11:21:35;;;;;;;4.70;1.50;;;15.30;69.30;;;;;;7290848;32;20210;-60
2022/03/18 11:25:38;;;;;;;8.32;1.75;;;14.70;66.40;;;;;;7290821;32;20622;-61
2022/03/18 11:29:40;;;;;;;4.82;1.62;;;14.40;70.30;;;;;;7290896;32;20412;-60
2022/03/18 11:34:09;;;;;;;5.80;1.55;;;14.90;68.30;;;;;;7277414;32;20198;-62
2022/03/18 11:38:11;;;;;;;4.95;1.45;;;15.30;68.00;;;;;;7282315;32;20119;-61
2022/03/18 11:42:20;;;;;;;5.68;1.37;;;15.00;64.30;;;;;;7287920;32;20195;-62
2022/03/18 11:46:25;;;;;;;4.53;1.55;;;14.50;64.70;;;;;;7284691;32;21253;-62
2022/03/18 11:50:43;;;;;;;4.55;1.60;;;15.00;66.80;;;;;;7285774;32;20186;-62
2022/03/18 11:54:51;;;;;;;4.40;1.80;;;14.90;69.40;;;;;;7289538;32;20827;-61
2022/03/18 11:58:52;;;;;;;4.03;1.80;;;14.70;64.50;;;;;;7288623;32;20116;-61
2022/03/18 12:02:54;;;;;;;6.90;1.95;;;14.80;65.30;;;;;;7289358;32;20418;-62
2022/03/18 12:07:18;;;;;;;5.37;1.55;;;15.30;64.80;;;;;;7298090;32;20375;-61
2022/03/18 12:11:30;;;;;;;4.22;1.55;;;15.60;60.90;;;;;;7292015;32;20116;-61
2022/03/18 12:15:39;;;;;;;3.78;1.58;;;15.60;59.70;;;;;;7289124;32;20122;-61
2022/03/18 12:19:54;;;;;;;3.17;1.62;;;15.00;60.90;;;;;;7283354;32;20231;-62
2022/03/18 12:24:04;;;;;;;6.43;1.95;;;15.20;59.90;;;;;;7290183;32;20519;-63
2022/03/18 12:28:06;;;;;;;7.20;2.62;;;15.10;61.80;;;;;;7292810;32;20309;-63
2022/03/18 12:32:09;;;;;;;4.93;2.30;;;14.10;66.90;;;;;;7292023;32;20140;-61
2022/03/18 12:36:13;;;;;;;6.55;2.45;;;14.00;66.00;;;;;;7289617;32;20158;-61
2022/03/18 12:40:17;;;;;;;9.40;2.85;;;13.70;67.00;;;;;;7291250;32;20116;-62
2022/03/18 12:44:32;;;;;;;4.12;2.62;;;13.70;67.80;;;;;;7296391;32;20163;-61
2022/03/18 12:48:34;;;;;;;7.15;1.98;;;13.80;64.00;;;;;;7293655;32;20112;-60
2022/03/18 12:52:43;;;;;;;4.32;2.20;;;14.20;67.20;;;;;;7294419;32;20194;-61
2022/03/18 12:56:44;;;;;;;8.15;2.78;;;14.00;65.50;;;;;;7286432;32;20210;-61
2022/03/18 13:00:53;;;;;;;7.10;2.58;;;14.10;64.70;;;;;;7293786;32;20728;-62
2022/03/18 13:04:58;;;;;;;7.62;2.60;;;14.00;68.40;;;;;;7293606;32;20100;-62
2022/03/18 13:09:13;;;;;;;8.10;2.92;;;13.80;71.60;;;;;;7294785;32;20787;-62
2022/03/18 13:13:16;;;;;;;6.45;2.65;;;13.90;70.50;;;;;;7294162;32;20711;-63
2022/03/18 13:17:30;;;;;;;4.90;2.70;;;13.90;65.50;;;;;;7287915;32;20207;-61
2022/03/18 13:21:42;;;;;;;7.80;2.47;;;14.00;66.30;;;;;;7291639;32;20163;-62
2022/03/18 13:25:44;;;;;;;5.40;2.72;;;14.50;65.80;;;;;;7292025;32;20112;-59
2022/03/18 13:34:08;;;;;;;5.37;2.72;;;15.20;64.30;;;;;;7283558;32;20158;-56
2022/03/18 13:38:14;;;;;;;7.20;2.55;;;15.10;63.50;;;;;;7293399;32;20469;-57
2022/03/18 13:42:25;;;;;;;5.53;2.30;;;15.50;62.20;;;;;;7291647;32;20130;-63
2022/03/18 13:47:06;;;;;;;6.05;2.20;;;15.60;59.80;;;;;;7293771;32;20218;-62
2022/03/18 13:51:09;;;;;;;8.82;3.12;;;16.10;57.90;;;;;;7295231;32;20120;-59
2022/03/18 13:55:32;;;;;;;6.20;2.28;;;16.40;54.40;;;;;;7294109;32;20509;-60
2022/03/18 13:59:34;;;;;;;4.10;1.67;;;15.90;56.40;;;;;;7275473;32;20187;-60
2022/03/18 14:03:38;;;;;;;8.05;2.25;;;15.70;58.50;;;;;;7291784;32;20406;-60
2022/03/18 14:07:45;;;;;;;5.25;2.03;;;16.00;57.40;;;;;;7291439;32;20130;-61
2022/03/18 14:16:14;;;;;;;4.50;2.15;;;16.70;56.80;;;;;;7292168;32;20106;-61
2022/03/18 14:20:15;;;;;;;4.50;2.00;;;16.30;54.00;;;;;;7295759;32;20134;-61
2022/03/18 14:24:21;;;;;;;7.87;3.15;;;15.30;57.70;;;;;;7292777;32;20268;-61
2022/03/18 14:28:25;;;;;;;5.30;2.17;;;15.40;57.30;;;;;;7286371;32;20174;-60
2022/03/18 14:32:27;;;;;;;7.43;2.08;;;15.30;56.90;;;;;;7291175;32;20332;-62
2022/03/18 14:36:28;;;;;;;4.95;2.12;;;15.30;56.50;;;;;;7293403;32;20130;-61
2022/03/18 14:40:30;;;;;;;4.72;1.77;;;15.50;54.70;;;;;;7279750;32;20266;-57
2022/03/18 14:44:33;;;;;;;6.85;2.10;;;15.80;55.20;;;;;;7289928;32;20472;-64
2022/03/18 14:48:34;;;;;;;5.45;2.15;;;15.60;54.50;;;;;;7289963;32;20334;-61
2022/03/18 14:52:37;;;;;;;4.43;1.85;;;15.70;54.50;;;;;;7289695;32;20131;-62
2022/03/18 14:56:38;;;;;;;4.10;1.80;;;15.10;55.90;;;;;;7269909;32;20226;-61
2022/03/18 15:00:40;;;;;;;5.20;1.73;;;14.40;56.80;;;;;;7288540;32;20135;-61
2022/03/18 15:04:43;;;;;;;5.12;2.20;;;14.10;58.50;;;;;;7291609;32;20138;-59
2022/03/18 15:08:46;;;;;;;6.57;2.12;;;13.90;59.80;;;;;;7290496;32;20222;-60
2022/03/18 15:12:47;;;;;;;5.62;2.50;;;13.70;62.40;;;;;;7287828;32;20806;-59
2022/03/18 15:16:49;;;;;;;6.22;3.22;;;13.50;66.60;;;;;;7283643;32;20122;-60
2022/03/18 15:20:53;;;;;;;8.75;2.70;;;13.40;67.80;;;;;;7289720;32;20588;-60
2022/03/18 15:24:55;;;;;;;6.82;3.35;;;13.30;68.50;;;;;;7293951;32;20218;-61
2022/03/18 15:28:57;;;;;;;6.85;2.90;;;13.20;70.20;;;;;;7295855;32;20612;-61
2022/03/18 15:32:58;;;;;;;5.25;3.00;;;13.30;73.20;;;;;;7296621;32;20142;-59
2022/03/18 15:37:00;;;;;;;8.95;3.90;;;13.10;73.60;;;;;;7293950;32;20245;-62
2022/03/18 15:41:02;;;;;;;9.75;3.70;;;13.20;77.40;;;;;;7296461;32;20248;-60
2022/03/18 15:45:04;;;;;;;8.05;3.42;;;13.10;79.00;;;;;;7294022;32;20124;-62
2022/03/18 15:49:06;;;;;;;8.05;3.78;;;13.10;81.80;;;;;;7293674;32;20108;-59
2022/03/18 15:53:08;;;;;;;8.48;3.42;;;13.00;86.80;;;;;;7294026;32;20216;-59
2022/03/18 15:57:12;;;;;;;7.75;3.58;;;12.90;90.30;;;;;;7293605;32;20202;-61
2022/03/18 16:01:17;;;;;;;9.05;3.80;;;12.80;91.20;;;;;;7295304;32;20162;-61
2022/03/18 16:05:19;;;;;;;8.65;3.83;;;12.80;93.70;;;;;;7290905;32;20111;-61
2022/03/18 16:09:21;;;;;;;9.20;3.75;;;12.70;95.00;;;;;;7294845;32;20163;-61
2022/03/18 16:13:27;;;;;;;10.82;4.07;;;12.60;95.30;;;;;;7289073;32;20236;-60
2022/03/18 16:17:31;;;;;;;8.15;3.80;;;12.50;96.90;;;;;;7284253;32;20224;-60
2022/03/18 16:21:33;;;;;;;7.57;3.37;;;12.40;97.40;;;;;;7287492;32;20108;-60
2022/03/18 16:25:34;;;;;;;6.78;2.95;;;12.40;98.20;;;;;;7290968;32;20120;-60
2022/03/18 16:29:36;;;;;;;6.28;3.60;;;12.50;98.20;;;;;;7292996;32;20149;-62
2022/03/18 16:33:38;;;;;;;9.35;3.33;;;12.30;98.70;;;;;;7288995;32;20818;-61
2022/03/18 16:37:40;;;;;;;7.68;2.80;;;12.30;99.80;;;;;;7293158;32;20198;-60
2022/03/18 16:41:47;;;;;;;;;;;12.20;99.90;;;;;;7288039;32;20138;-60
2022/03/18 16:50:10;;;;;;;10.18;3.47;;;12.10;99.90;;;;;;7296041;32;20130;-59
2022/03/18 16:54:11;;;;;;;9.85;3.10;;;12.20;99.90;;;;;;7298023;32;20160;-63
2022/03/18 16:58:13;;;;;;;8.10;2.92;;;12.00;99.90;;;;;;7295494;32;20446;-62
2022/03/18 17:02:15;;;;;;;6.75;3.15;;;11.90;99.90;;;;;;7298524;32;20123;-62
2022/03/18 17:06:17;;;;;;;7.28;2.92;;;11.80;99.90;;;;;;7292166;32;20621;-61
2022/03/18 17:10:19;;;;;;;12.27;3.25;;;11.80;99.90;;;;;;7295507;32;20533;-60
2022/03/18 17:14:21;;;;;;;9.60;3.60;;;11.60;99.90;;;;;;7296096;32;20514;-63
2022/03/18 17:18:23;;;;;;;8.10;3.55;;;11.50;99.90;;;;;;7293251;32;20115;-62
2022/03/18 17:22:29;;;;;;;8.52;3.40;;;11.30;99.90;;;;;;7293058;32;20159;-63
2022/03/18 17:26:34;;;;;;;11.35;3.53;;;11.30;99.90;;;;;;7286670;32;20108;-62
2022/03/18 17:30:36;;;;;;;9.68;3.53;;;11.20;99.90;;;;;;7284505;32;20112;-63
2022/03/18 17:34:38;;;;;;;9.05;3.62;;;11.00;99.90;;;;;;7286464;32;20116;-62
2022/03/18 17:38:40;;;;;;;9.90;3.92;;;11.00;99.90;;;;;;7292710;32;20201;-62
2022/03/18 17:42:42;;;;;;;8.20;4.10;;;10.90;99.90;;;;;;7289233;32;20606;-62
2022/03/18 17:46:44;;;;;;;7.70;3.78;;;10.80;99.90;;;;;;7292841;32;20819;-63
2022/03/18 17:50:46;;;;;;;9.18;3.87;;;10.70;99.90;;;;;;7289706;32;20134;-65
2022/03/18 17:54:49;;;;;;;10.20;3.95;;;10.60;99.90;;;;;;7288721;32;20135;-61
2022/03/18 17:58:51;;;;;;;10.65;4.20;;;10.50;99.90;;;;;;7287639;32;20112;-63
2022/03/18 18:02:52;;;;;;;8.23;3.35;;;10.40;99.90;;;;;;7289065;32;20167;-61
2022/03/18 18:06:55;;;;;;;8.75;3.60;;;10.20;99.90;;;;;;7286350;32;20249;-61
2022/03/18 18:11:06;;;;;;;10.63;3.97;;;10.20;99.90;;;;;;7293561;32;20111;-59
2022/03/18 18:15:15;;;;;;;8.95;4.25;;;10.00;99.90;;;;;;7292762;32;20115;-60
2022/03/18 18:23:38;;;;;;;10.77;4.25;;;9.90;99.90;;;;;;7289066;32;20104;-60
2022/03/18 18:27:40;;;;;;;8.75;4.00;;;9.70;99.90;;;;;;7289894;32;20112;-61
2022/03/18 18:31:41;;;;;;;7.53;3.90;;;9.60;99.90;;;;;;7284147;32;20247;-61
2022/03/18 18:35:45;;;;;;;9.05;3.58;;;9.50;99.90;;;;;;7287143;32;20108;-64
2022/03/18 18:39:47;;;;;;;6.20;3.55;;;9.40;99.90;;;;;;7289766;32;20116;-62
2022/03/18 18:43:51;;;;;;;7.70;4.18;;;9.40;99.90;;;;;;7289554;32;20203;-62
2022/03/18 18:47:54;;;;;;;7.57;3.58;;;9.30;99.90;;;;;;7291870;32;20107;-63
2022/03/18 18:52:00;;;;;;;10.20;4.22;;;9.30;99.90;;;;;;7292570;32;20108;-63
2022/03/18 18:56:02;;;;;;;13.10;4.10;;;9.20;99.90;;;;;;7291697;32;20191;-64
2022/03/18 19:00:06;;;;;;;8.40;3.92;;;9.10;99.90;;;;;;7278403;32;20191;-63
2022/03/18 19:04:09;;;;;;;9.52;4.30;;;9.10;99.90;;;;;;7291324;32;20111;-65
2022/03/18 19:08:11;;;;;;;7.32;3.90;;;9.00;99.90;;;;;;7287759;32;20179;-62
2022/03/18 19:12:15;;;;;;;7.50;3.75;;;9.00;99.90;;;;;;7273007;32;20131;-63
2022/03/18 19:16:17;;;;;;;10.68;3.87;;;9.00;99.90;;;;;;7286126;32;20300;-63
2022/03/18 19:20:19;;;;;;;9.23;3.40;;;9.00;99.90;;;;;;7283704;32;20505;-64
2022/03/18 19:24:21;;;;;;;10.13;4.30;;;9.10;99.90;;;;;;7293040;32;20171;-63
2022/03/18 19:28:23;;;;;;;9.02;4.03;;;9.10;99.90;;;;;;7293160;32;20112;-64
2022/03/18 19:32:27;;;;;;;12.70;5.12;;;9.10;99.90;;;;;;7285342;32;20142;-62
2022/03/18 19:36:30;;;;;;;11.95;4.82;;;9.00;99.90;;;;;;7292058;32;20699;-61
2022/03/18 19:40:35;;;;;;;8.82;3.83;;;9.00;99.90;;;;;;7293455;32;20168;-63
2022/03/18 19:44:38;;;;;;;8.35;3.87;;;8.90;99.90;;;;;;7291573;32;20873;-63
2022/03/18 19:48:39;;;;;;;9.10;3.72;;;8.90;99.90;;;;;;7291798;32;20213;-62
2022/03/18 19:52:42;;;;;;;6.75;3.92;;;8.80;99.90;;;;;;7289035;32;20217;-61
2022/03/18 20:01:07;;;;;;;9.43;3.80;;;8.80;99.90;;;;;;7288430;32;20218;-64
2022/03/18 20:05:13;;;;;;;9.00;4.10;;;8.90;99.90;;;;;;7291378;32;20848;-61
2022/03/18 20:09:15;;;;;;;13.77;4.32;;;8.80;99.90;;;;;;7288434;32;20194;-64
2022/03/18 20:13:18;;;;;;;8.23;4.00;;;8.70;99.90;;;;;;7285955;32;20555;-63
2022/03/18 20:17:21;;;;;;;7.22;3.70;;;8.70;99.90;;;;;;7286684;32;20234;-60
2022/03/18 20:21:23;;;;;;;8.38;4.12;;;8.70;99.90;;;;;;7291830;32;20108;-62
2022/03/18 20:25:26;;;;;;;10.55;4.50;;;8.60;99.90;;;;;;7295968;32;20134;-64
2022/03/18 20:29:28;;;;;;;10.77;4.43;;;8.70;99.90;;;;;;7297839;32;20112;-64
2022/03/18 20:33:29;;;;;;;12.45;5.22;;;8.60;99.90;;;;;;7290394;32;20233;-64
2022/03/18 20:37:35;;;;;;;9.23;4.30;;;8.70;99.90;;;;;;7291170;32;20571;-65
2022/03/18 20:41:37;;;;;;;7.40;3.95;;;8.60;99.90;;;;;;7293787;32;20157;-64
2022/03/18 20:45:39;;;;;;;8.32;3.50;;;8.50;99.90;;;;;;7291612;32;20549;-64
2022/03/18 20:49:41;;;;;;;8.10;4.15;;;8.50;99.90;;;;;;7295238;32;20130;-64
2022/03/18 20:53:43;;;;;;;9.55;4.57;;;8.50;99.90;;;;;;7297324;32;20681;-63
2022/03/18 20:57:44;;;;;;;10.40;4.50;;;8.40;99.90;;;;;;7288067;32;20108;-63
2022/03/18 21:01:46;;;;;;;11.25;4.57;;;8.50;99.90;;;;;;7287388;32;20138;-63
2022/03/18 21:05:48;;;;;;;8.23;4.57;;;8.40;99.90;;;;;;7290648;32;20257;-63
2022/03/18 21:09:50;;;;;;;12.15;5.00;;;8.50;99.90;;;;;;7291950;32;20112;-62
2022/03/18 21:13:55;;;;;;;10.57;4.47;;;8.40;99.90;;;;;;7289385;32;20234;-64
2022/03/18 21:17:57;;;;;;;12.35;4.80;;;8.30;99.90;;;;;;7285587;32;20238;-65
2022/03/18 21:22:00;;;;;;;12.90;5.45;;;8.30;99.90;;;;;;7283132;32;20376;-63
2022/03/18 21:34:30;;;;;;;7.47;4.60;;;8.20;99.90;;;;;;7288300;32;20210;-62
2022/03/18 21:38:32;;;;;;;10.65;4.70;;;8.10;99.90;;;;;;7289924;32;20222;-60
2022/03/18 21:42:36;;;;;;;9.93;4.95;;;8.00;99.90;;;;;;7292098;32;20448;-61
2022/03/18 21:46:38;;;;;;;10.73;5.72;;;8.00;99.90;;;;;;7283415;32;20134;-61
2022/03/18 21:50:41;;;;;;;11.73;5.60;;;8.00;99.90;;;;;;7288424;32;20283;-60
2022/03/18 21:54:43;;;;;;;9.90;4.50;;;7.90;99.90;;;;;;7288353;32;20695;-61
2022/03/18 21:58:44;;;;;;;13.55;5.75;;;7.70;99.90;;;;;;7283975;32;20132;-62
2022/03/18 22:02:46;;;;;;;9.23;4.72;;;7.70;99.90;;;;;;7286549;32;20154;-62